Time;durP1;ratioP1;P1;durP2;ratioP2;P2;SDS_P1;SDS_P2;PMS_P1;PMS_P2;Temp;Humidity;BMP_temperature;BMP_pressure;BME280_temperature;BME280_humidity;BME280_pressure;Samples;Min_cycle;Max_cycle;Signal;HPM_P1;HPM_P2
2022/01/12 00:02:04;;;;;;;6.85;4.70;;;-1.50;99.90;;;-2.45;100.00;98929.22;5020079;28;20034;-47
2022/01/12 00:04:30;;;;;;;7.57;4.90;;;-1.50;99.90;;;-2.48;100.00;98936.81;5023061;28;20082;-41
2022/01/12 00:06:56;;;;;;;8.25;4.85;;;-1.60;99.90;;;-2.51;100.00;98932.44;5022261;28;20025;-42
2022/01/12 00:09:21;;;;;;;7.35;4.82;;;-1.60;99.90;;;-2.53;100.00;98934.97;5021608;28;20029;-45
2022/01/12 00:11:47;;;;;;;9.02;5.22;;;-1.60;99.90;;;-2.44;100.00;98938.69;5022871;28;20029;-45
2022/01/12 00:14:13;;;;;;;6.82;4.88;;;-1.60;99.90;;;-2.46;100.00;98937.75;5020159;28;20037;-43
2022/01/12 00:16:40;;;;;;;8.23;4.80;;;-1.60;99.90;;;-2.46;100.00;98935.19;5024140;28;20037;-43
2022/01/12 00:19:06;;;;;;;7.93;5.10;;;-1.60;99.90;;;-2.47;100.00;98936.91;5025360;28;20064;-45
2022/01/12 00:21:32;;;;;;;7.03;4.53;;;-1.60;99.90;;;-2.53;100.00;98944.38;5024217;28;20030;-48
2022/01/12 00:23:58;;;;;;;6.72;4.63;;;-1.60;99.90;;;-2.56;100.00;98944.28;5021507;28;20045;-41
2022/01/12 00:34:38;;;;;;;9.82;5.70;;;-1.70;99.90;;;-2.63;100.00;98937.13;5022115;28;20518;-44
2022/01/12 00:40:50;;;;;;;10.45;5.15;;;-1.70;99.90;;;-2.66;100.00;98934.41;5014512;28;20114;-45
2022/01/12 00:43:18;;;;;;;8.85;5.50;;;-1.70;99.90;;;-2.66;100.00;98935.28;5018724;28;20546;-45
2022/01/12 00:45:46;;;;;;;8.07;5.28;;;-1.70;99.90;;;-2.67;100.00;98936.13;5020891;28;20490;-40
2022/01/12 00:48:17;;;;;;;7.32;5.20;;;-1.70;99.90;;;-2.71;100.00;98934.19;5018451;28;20144;-45
2022/01/12 00:50:45;;;;;;;8.13;4.90;;;-1.70;99.90;;;-2.72;100.00;98946.25;5021375;28;20334;-48
2022/01/12 00:53:11;;;;;;;8.70;4.70;;;-1.80;99.90;;;-2.71;100.00;98941.94;5021259;28;20565;-46
2022/01/12 00:55:37;;;;;;;8.43;4.57;;;-1.70;99.90;;;-2.74;100.00;98953.06;5022641;28;20290;-42
2022/01/12 00:58:03;;;;;;;6.82;4.45;;;-1.80;99.90;;;-2.75;100.00;98947.81;5019928;28;20036;-46
2022/01/12 01:00:30;;;;;;;5.53;4.32;;;-1.80;99.90;;;-2.80;100.00;98957.06;5019698;28;20030;-47
2022/01/12 01:02:56;;;;;;;9.85;4.63;;;-1.80;99.90;;;-2.81;100.00;98951.03;5021391;28;20025;-42
2022/01/12 01:05:25;;;;;;;8.02;4.72;;;-1.80;99.90;;;-2.82;100.00;98954.44;5019797;28;20021;-42
2022/01/12 01:07:52;;;;;;;8.07;4.78;;;-1.80;99.90;;;-2.85;100.00;98956.91;5020652;28;20041;-43
2022/01/12 01:10:56;;;;;;;6.95;4.53;;;-1.90;99.90;;;-2.85;100.00;98956.91;5016475;28;20479;-41
2022/01/12 01:13:15;;;;;;;6.75;4.45;;;-1.90;99.90;;;-2.86;100.00;98964.59;5021124;28;20076;-45
2022/01/12 01:26:30;;;;;;;7.13;4.60;;;-2.00;99.90;;;-2.97;100.00;98958.97;5019722;28;20075;-42
2022/01/12 01:28:56;;;;;;;7.63;4.68;;;-2.00;99.90;;;-2.99;100.00;98956.34;5023786;28;20075;-47
2022/01/12 01:31:28;;;;;;;6.32;4.22;;;-2.00;99.90;;;-2.93;100.00;98969.47;5023363;28;20033;-41
2022/01/12 01:33:54;;;;;;;7.75;4.43;;;-2.00;99.90;;;-2.93;100.00;98969.47;5019032;28;20029;-46
2022/01/12 01:36:23;;;;;;;6.10;4.25;;;-2.00;99.90;;;-2.97;100.00;98958.97;5020545;28;20037;-40
2022/01/12 01:38:49;;;;;;;5.93;4.18;;;-2.00;99.90;;;-3.00;100.00;98970.03;5019297;28;20138;-44
2022/01/12 01:41:15;;;;;;;7.68;4.35;;;-2.00;99.90;;;-2.99;100.00;98964.06;5020890;28;20049;-41
2022/01/12 01:44:06;;;;;;;8.27;4.97;;;-2.00;99.90;;;-2.96;100.00;98969.38;5021034;28;20471;-44
2022/01/12 01:54:38;;;;;;;7.22;4.68;;;-2.00;99.90;;;-3.05;100.00;98943.19;5021106;28;20126;-43
2022/01/12 01:57:04;;;;;;;8.10;5.00;;;-2.00;99.90;;;-3.08;100.00;98946.50;5022231;28;20095;-39
2022/01/12 01:59:30;;;;;;;7.40;4.35;;;-2.10;99.90;;;-3.11;100.00;98941.19;5019728;28;20026;-40
2022/01/12 02:01:56;;;;;;;7.95;5.03;;;-2.10;99.90;;;-3.03;100.00;98948.38;5011705;28;20550;-46
2022/01/12 02:04:21;;;;;;;8.02;5.00;;;-2.10;99.90;;;-3.03;100.00;98946.69;5017330;28;20048;-42
2022/01/12 02:06:47;;;;;;;10.52;5.45;;;-2.10;99.90;;;-3.03;100.00;98944.13;5017319;28;20013;-46
2022/01/12 02:09:13;;;;;;;8.85;5.20;;;-2.10;99.90;;;-3.12;100.00;98943.75;5016141;28;20360;-45
2022/01/12 02:11:38;;;;;;;10.93;5.72;;;-2.00;99.90;;;-3.09;100.00;98960.25;5015055;28;20072;-42
2022/01/12 02:14:04;;;;;;;7.50;4.95;;;-2.10;99.90;;;-3.02;100.00;98968.22;5019657;28;20033;-46
2022/01/12 02:16:39;;;;;;;8.20;5.03;;;-2.10;99.90;;;-3.07;100.00;98970.59;5020356;28;20117;-49
2022/01/12 02:19:28;;;;;;;7.93;4.93;;;-2.10;99.90;;;-3.11;100.00;98972.16;5021237;28;20421;-43
2022/01/12 02:35:48;;;;;;;10.13;5.28;;;-2.20;99.90;;;-3.36;100.00;98965.06;5020845;28;20032;-46
2022/01/12 02:40:53;;;;;;;9.43;5.85;;;-2.30;99.90;;;-3.31;100.00;98967.88;5019063;28;20030;-41
2022/01/12 02:53:51;;;;;;;10.10;5.55;;;-2.30;99.90;;;-3.32;100.00;98953.19;5025520;28;20185;-40
2022/01/12 02:56:29;;;;;;;8.23;5.15;;;-2.30;99.90;;;-3.30;100.00;98961.91;5022598;28;20029;-48
2022/01/12 02:58:58;;;;;;;9.05;5.57;;;-2.30;99.90;;;-3.29;100.00;98961.94;5021723;28;20136;-46
2022/01/12 03:04:05;;;;;;;8.68;5.47;;;-2.30;99.90;;;-3.31;100.00;98954.97;5023229;28;20124;-46
2022/01/12 03:06:36;;;;;;;8.95;5.32;;;-2.30;99.90;;;-3.37;100.00;98950.44;5007258;28;20036;-48
2022/01/12 03:09:07;;;;;;;8.93;5.43;;;-2.30;99.90;;;-3.42;100.00;98948.47;5022854;28;20083;-42
2022/01/12 03:11:36;;;;;;;9.13;5.40;;;-2.30;99.90;;;-3.35;100.00;98965.97;5024426;28;20529;-42
2022/01/12 03:14:02;;;;;;;10.57;5.55;;;-2.30;99.90;;;-3.37;100.00;98971.06;5006379;28;20322;-44
2022/01/12 03:16:28;;;;;;;10.30;5.43;;;-2.30;99.90;;;-3.46;100.00;98962.94;5025158;28;20030;-45
2022/01/12 03:19:00;;;;;;;12.57;5.25;;;-2.40;99.90;;;-3.38;100.00;98963.25;5020909;28;20108;-45
2022/01/12 03:21:30;;;;;;;9.40;5.53;;;-2.40;99.90;;;-3.39;100.00;98970.13;5020960;28;20036;-42
2022/01/12 03:23:56;;;;;;;8.98;5.50;;;-2.40;99.90;;;-3.40;100.00;98963.19;5025087;28;20025;-46
2022/01/12 03:26:24;;;;;;;10.90;5.88;;;-2.40;99.90;;;-3.41;100.00;98960.53;5018124;28;20028;-45
2022/01/12 03:28:54;;;;;;;8.82;5.50;;;-2.40;99.90;;;-3.51;100.00;98947.25;5025050;28;20387;-42
2022/01/12 03:31:33;;;;;;;8.02;5.35;;;-2.50;99.90;;;-3.47;100.00;98972.34;5021344;28;20802;-44
2022/01/12 03:34:21;;;;;;;8.30;5.43;;;-2.50;99.90;;;-3.50;100.00;98981.66;5023140;28;20127;-41
2022/01/12 03:39:31;;;;;;;10.50;5.10;;;-2.50;99.90;;;-3.53;100.00;98979.84;5019586;28;20040;-42
2022/01/12 03:41:57;;;;;;;9.55;5.32;;;-2.50;99.90;;;-3.48;100.00;99000.69;5007120;28;20037;-45
2022/01/12 03:44:22;;;;;;;8.65;5.07;;;-2.50;99.90;;;-3.49;100.00;98997.22;5023897;28;20057;-42
2022/01/12 03:46:54;;;;;;;9.65;5.68;;;-2.50;99.90;;;-3.51;100.00;98995.38;5021426;28;20060;-44
2022/01/12 03:49:21;;;;;;;9.93;5.60;;;-2.50;99.90;;;-3.52;100.00;98985.88;5023476;28;20052;-49
2022/01/12 03:51:47;;;;;;;8.45;5.47;;;-2.50;99.90;;;-3.57;100.00;98985.69;5020707;28;20403;-41
2022/01/12 03:54:13;;;;;;;8.32;5.45;;;-2.50;99.90;;;-3.57;100.00;98992.50;5023783;28;20044;-41
2022/01/12 03:56:39;;;;;;;8.85;5.68;;;-2.50;99.90;;;-3.54;100.00;98984.94;5027006;28;20117;-40
2022/01/12 03:59:06;;;;;;;8.95;5.97;;;-2.50;99.90;;;-3.57;100.00;98993.44;5019298;28;20104;-41
2022/01/12 04:01:32;;;;;;;9.23;6.20;;;-2.50;99.90;;;-3.65;100.00;98987.91;5024203;28;20025;-47
2022/01/12 04:04:03;;;;;;;11.02;6.28;;;-2.60;99.90;;;-3.68;100.00;98987.78;5020929;28;20284;-49
2022/01/12 04:09:14;;;;;;;11.30;6.43;;;-2.60;99.90;;;-3.66;100.00;99000.72;5018427;28;20483;-44
2022/01/12 04:11:39;;;;;;;10.20;6.35;;;-2.60;99.90;;;-3.66;100.00;98987.81;5024205;28;20029;-47
2022/01/12 04:14:06;;;;;;;9.82;6.22;;;-2.60;99.90;;;-3.60;100.00;99002.72;5023192;28;20026;-43
2022/01/12 04:16:33;;;;;;;8.02;5.88;;;-2.60;99.90;;;-3.63;100.00;98984.53;5023277;28;20119;-50
2022/01/12 04:18:58;;;;;;;9.68;6.30;;;-2.60;99.90;;;-3.65;100.00;98981.88;5023096;28;20057;-40
2022/01/12 04:21:29;;;;;;;8.70;5.65;;;-2.60;99.90;;;-3.65;100.00;98992.19;5025293;28;20084;-42
2022/01/12 04:23:57;;;;;;;11.95;6.15;;;-2.70;99.90;;;-3.68;100.00;98987.78;5024170;28;20029;-41
2022/01/12 04:26:24;;;;;;;9.63;5.70;;;-2.60;99.90;;;-3.69;100.00;98987.72;5024044;28;20100;-41
2022/01/12 04:28:51;;;;;;;11.00;6.38;;;-2.60;99.90;;;-3.78;100.00;98975.28;5021568;28;20064;-41
2022/01/12 04:31:17;;;;;;;11.00;6.65;;;-2.70;99.90;;;-3.82;100.00;98978.53;5023501;28;20547;-43
2022/01/12 04:33:44;;;;;;;11.35;6.30;;;-2.70;99.90;;;-3.73;100.00;98981.53;5022731;28;20029;-41
2022/01/12 04:36:12;;;;;;;12.50;6.22;;;-2.70;99.90;;;-3.71;100.00;98985.06;5019088;28;20029;-41
2022/01/12 04:38:40;;;;;;;12.57;6.70;;;-2.70;99.90;;;-3.79;100.00;98981.25;5022677;28;20034;-42
2022/01/12 04:41:09;;;;;;;10.10;6.10;;;-2.70;99.90;;;-3.75;100.00;99002.88;5022477;28;20107;-45
2022/01/12 04:43:41;;;;;;;10.23;5.70;;;-2.70;99.90;;;-3.75;100.00;99019.25;5023933;28;20053;-42
2022/01/12 04:48:48;;;;;;;10.63;5.72;;;-2.80;99.90;;;-3.78;100.00;99003.66;5022293;28;20075;-41
2022/01/12 04:51:14;;;;;;;10.75;6.03;;;-2.80;99.90;;;-3.82;100.00;99001.75;5017789;28;20546;-39
2022/01/12 04:53:39;;;;;;;10.73;6.25;;;-2.80;99.90;;;-3.81;100.00;99016.38;5022404;28;20056;-40
2022/01/12 04:56:05;;;;;;;11.10;6.07;;;-2.80;99.90;;;-3.82;100.00;99017.22;5019868;28;20383;-42
2022/01/12 04:58:32;;;;;;;9.63;6.47;;;-2.80;99.90;;;-3.81;100.00;99018.97;5015116;28;20511;-43
2022/01/12 05:01:05;;;;;;;10.20;6.07;;;-2.80;99.90;;;-3.83;100.00;99024.06;5006216;28;20068;-44
2022/01/12 05:07:21;;;;;;;10.85;6.40;;;-2.80;99.90;;;-3.88;100.00;99027.22;5019655;28;20039;-42
2022/01/12 05:12:51;;;;;;;10.98;6.43;;;-2.90;99.90;;;-3.86;100.00;99033.34;5012299;28;20044;-44
2022/01/12 05:14:56;;;;;;;13.45;7.00;;;-2.90;99.90;;;-3.84;100.00;99035.19;5022661;28;20040;-42
2022/01/12 05:17:22;;;;;;;12.23;6.65;;;-2.90;99.90;;;-3.81;100.00;99041.28;5021752;28;20245;-42
2022/01/12 05:19:48;;;;;;;11.38;6.85;;;-2.80;99.90;;;-3.85;100.00;99042.84;5024990;28;20037;-44
2022/01/12 05:22:13;;;;;;;10.73;6.57;;;-2.90;99.90;;;-3.94;100.00;99039.84;5022033;28;20033;-41
2022/01/12 05:24:39;;;;;;;11.45;6.55;;;-2.90;99.90;;;-3.91;100.00;99056.34;5021653;28;20034;-39
2022/01/12 05:27:05;;;;;;;12.65;7.43;;;-2.90;99.90;;;-3.91;100.00;99053.75;5021982;28;20041;-46
2022/01/12 05:29:30;;;;;;;10.63;6.93;;;-2.90;99.90;;;-3.86;100.00;99056.53;5022287;28;20084;-40
2022/01/12 05:31:56;;;;;;;12.00;6.95;;;-2.90;99.90;;;-3.86;100.00;99059.13;5023377;28;20051;-43
2022/01/12 05:34:24;;;;;;;12.70;7.47;;;-2.90;99.90;;;-3.87;100.00;99058.25;5021586;28;20107;-41
2022/01/12 05:36:50;;;;;;;16.40;7.53;;;-2.90;99.90;;;-3.91;100.00;99065.75;5027090;28;20043;-41
2022/01/12 05:39:16;;;;;;;12.90;7.63;;;-2.90;99.90;;;-3.88;100.00;99071.06;5020652;28;20025;-43
2022/01/12 05:41:41;;;;;;;12.23;7.70;;;-2.90;99.90;;;-3.94;100.00;99057.91;5021362;28;20285;-39
2022/01/12 05:44:08;;;;;;;11.57;7.57;;;-2.90;99.90;;;-3.89;100.00;99066.72;5022678;28;20079;-42
2022/01/12 05:46:36;;;;;;;10.75;7.22;;;-2.90;99.90;;;-3.90;100.00;99065.81;5022095;28;20382;-42
2022/01/12 05:51:47;;;;;;;14.18;8.18;;;-2.90;99.90;;;-3.96;100.00;99049.22;5020711;28;20036;-42
2022/01/12 05:54:12;;;;;;;12.15;7.78;;;-2.90;99.90;;;-3.97;100.00;99045.72;5021694;28;20068;-44
2022/01/12 05:56:38;;;;;;;12.27;7.95;;;-2.90;99.90;;;-4.02;100.00;99057.50;5021067;28;20029;-45
2022/01/12 05:59:04;;;;;;;12.05;7.93;;;-2.90;99.90;;;-4.04;100.00;99057.47;5021806;28;20056;-40
2022/01/12 06:01:29;;;;;;;13.48;7.50;;;-2.90;99.90;;;-4.07;100.00;99059.00;5017847;28;20049;-41
2022/01/12 06:03:56;;;;;;;13.35;8.07;;;-3.00;99.90;;;-4.02;100.00;99065.25;5019926;28;20156;-40
2022/01/12 06:06:22;;;;;;;15.55;8.30;;;-3.00;99.90;;;-4.04;100.00;99057.47;5016858;28;20036;-43
2022/01/12 06:08:48;;;;;;;16.38;8.15;;;-3.00;99.90;;;-4.00;100.00;99078.22;5020490;28;20033;-37
2022/01/12 06:11:14;;;;;;;13.35;8.25;;;-3.00;99.90;;;-4.05;100.00;99075.44;5014455;28;20406;-46
2022/01/12 06:13:39;;;;;;;14.80;8.65;;;-3.00;99.90;;;-4.04;100.00;99087.50;5020874;28;20511;-43
2022/01/12 06:16:05;;;;;;;13.15;8.40;;;-3.00;99.90;;;-4.04;100.00;99088.41;5018659;28;20032;-41
2022/01/12 06:18:31;;;;;;;16.05;9.07;;;-3.00;99.90;;;-4.10;100.00;99087.22;5018449;28;20025;-39
2022/01/12 06:20:56;;;;;;;13.88;8.38;;;-3.00;99.90;;;-4.10;100.00;99082.94;5020700;28;20036;-40
2022/01/12 06:23:22;;;;;;;13.25;8.35;;;-3.00;99.90;;;-4.09;100.00;99099.25;5017463;28;20458;-44
2022/01/12 06:25:48;;;;;;;13.85;8.80;;;-3.00;99.90;;;-4.14;100.00;99091.34;5018368;28;20024;-41
2022/01/12 06:31:10;;;;;;;15.75;9.10;;;-3.00;99.90;;;-4.11;100.00;99101.78;5018586;28;20436;-43
2022/01/12 06:33:38;;;;;;;15.45;9.18;;;-3.00;99.90;;;-4.06;100.00;99105.44;5019001;28;20029;-40
2022/01/12 06:36:05;;;;;;;13.45;8.45;;;-3.00;99.90;;;-4.13;100.00;99098.22;5020632;28;20096;-39
2022/01/12 06:38:33;;;;;;;15.70;9.70;;;-3.00;99.90;;;-4.13;100.00;99102.50;5020102;28;20113;-39
2022/01/12 06:40:58;;;;;;;14.80;9.10;;;-3.00;99.90;;;-4.15;100.00;99101.56;5021578;28;20167;-42
2022/01/12 06:43:27;;;;;;;18.38;10.40;;;-3.10;99.90;;;-4.19;100.00;99100.53;5020436;28;20550;-41
2022/01/12 06:45:52;;;;;;;16.08;9.98;;;-3.10;99.90;;;-4.34;100.00;99071.44;5018871;28;20034;-39
2022/01/12 06:48:18;;;;;;;20.75;10.48;;;-3.10;99.90;;;-4.15;100.00;99086.09;5004111;28;20037;-43
2022/01/12 06:50:44;;;;;;;15.07;9.73;;;-3.10;99.90;;;-4.14;100.00;99083.59;5020317;28;20040;-43
2022/01/12 06:53:09;;;;;;;16.33;10.00;;;-3.10;99.90;;;-4.16;100.00;99092.97;5014611;28;20034;-41
2022/01/12 06:55:35;;;;;;;14.35;9.40;;;-3.10;99.90;;;-4.17;100.00;99088.59;5018944;28;20124;-46
2022/01/12 06:58:01;;;;;;;17.15;10.05;;;-3.10;99.90;;;-4.15;100.00;99084.41;5014723;28;20056;-42
2022/01/12 07:00:27;;;;;;;17.65;10.45;;;-3.10;99.90;;;-4.20;100.00;99096.16;5018639;28;20042;-41
2022/01/12 07:02:52;;;;;;;17.10;10.77;;;-3.20;99.90;;;-4.14;100.00;99093.91;5018298;28;20022;-45
2022/01/12 07:05:18;;;;;;;17.67;10.95;;;-3.10;99.90;;;-4.26;100.00;99077.84;5020038;28;20079;-42
2022/01/12 07:07:44;;;;;;;18.23;10.73;;;-3.10;99.90;;;-4.07;100.00;99100.25;5017336;28;20527;-44
2022/01/12 07:10:09;;;;;;;16.92;10.15;;;-3.10;99.90;;;-4.09;100.00;99099.25;5014781;28;20048;-42
2022/01/12 07:12:35;;;;;;;20.15;11.10;;;-3.00;99.90;;;-4.05;100.00;99112.38;5021122;28;20510;-45
2022/01/12 07:15:01;;;;;;;19.23;11.35;;;-3.00;99.90;;;-3.99;100.00;99106.63;5019775;28;20025;-44
2022/01/12 07:17:26;;;;;;;17.80;11.25;;;-2.90;99.90;;;-3.99;100.00;99110.91;5019385;28;20099;-42
2022/01/12 07:19:52;;;;;;;17.13;11.40;;;-2.90;99.90;;;-3.97;100.00;99119.59;5020402;28;20053;-40
2022/01/12 07:22:18;;;;;;;19.65;11.57;;;-2.90;99.90;;;-4.00;100.00;99109.13;5019362;28;20037;-43
2022/01/12 07:24:43;;;;;;;20.40;12.48;;;-2.90;99.90;;;-4.02;100.00;99101.31;5016673;28;20647;-42
2022/01/12 07:27:09;;;;;;;21.17;12.88;;;-2.90;99.90;;;-4.08;100.00;99103.63;5023678;28;20036;-39
2022/01/12 07:29:35;;;;;;;21.52;11.88;;;-2.90;99.90;;;-4.01;100.00;99103.09;5025459;28;20040;-41
2022/01/12 07:32:00;;;;;;;20.27;12.57;;;-2.90;99.90;;;-3.94;100.00;99106.88;5022301;28;20159;-40
2022/01/12 07:34:26;;;;;;;22.05;12.80;;;-2.90;99.90;;;-3.91;100.00;99115.63;5022765;28;20025;-43
2022/01/12 07:36:52;;;;;;;21.80;12.65;;;-2.80;99.90;;;-3.84;100.00;99119.38;5023020;28;20640;-38
2022/01/12 07:39:17;;;;;;;20.45;12.23;;;-2.80;99.90;;;-3.77;100.00;99124.00;5026754;28;20033;-39
2022/01/12 07:41:44;;;;;;;23.75;12.93;;;-2.70;99.90;;;-3.71;100.00;99124.31;5026606;28;20026;-41
2022/01/12 07:44:10;;;;;;;21.52;12.88;;;-2.70;99.90;;;-3.71;100.00;99119.16;5024868;28;20033;-41
2022/01/12 07:46:36;;;;;;;23.38;13.75;;;-2.60;99.90;;;-3.67;100.00;99120.19;5007100;28;20538;-40
2022/01/12 07:49:02;;;;;;;22.63;14.15;;;-2.60;99.90;;;-3.52;100.00;99135.47;5026185;28;20087;-41
2022/01/12 07:51:27;;;;;;;27.02;13.70;;;-2.50;99.90;;;-3.48;100.00;99145.16;5023772;28;20053;-42
2022/01/12 07:53:53;;;;;;;21.63;13.02;;;-2.40;99.90;;;-3.39;100.00;99155.88;5019175;28;20026;-43
2022/01/12 07:56:19;;;;;;;21.17;13.05;;;-2.30;99.90;;;-3.29;100.00;99154.59;5018025;28;20451;-43
2022/01/12 07:58:44;;;;;;;25.13;13.15;;;-2.30;99.90;;;-3.15;100.00;99150.94;5024058;28;20021;-44
2022/01/12 08:01:12;;;;;;;24.88;13.63;;;-2.10;99.90;;;-3.01;100.00;99167.06;5022372;28;20033;-40
2022/01/12 08:03:38;;;;;;;21.13;12.55;;;-2.00;99.90;;;-2.90;100.00;99180.47;5021142;28;20388;-45
2022/01/12 08:06:04;;;;;;;23.65;12.63;;;-1.90;99.90;;;-2.77;100.00;99189.63;5020868;28;20451;-42
2022/01/12 08:08:29;;;;;;;23.08;13.77;;;-1.70;99.90;;;-2.65;100.00;99190.19;5022660;28;20041;-43
2022/01/12 08:10:55;;;;;;;19.92;13.10;;;-1.60;99.90;;;-2.63;100.00;99191.13;5021840;28;20029;-46
2022/01/12 08:13:21;;;;;;;21.35;12.95;;;-1.60;99.90;;;-2.63;100.00;99193.72;5021477;28;20354;-41
2022/01/12 08:15:46;;;;;;;22.77;13.98;;;-1.60;99.90;;;-2.64;100.00;99183.31;5026625;28;20610;-42
2022/01/12 08:18:12;;;;;;;21.52;13.05;;;-1.60;99.90;;;-2.57;100.00;99191.38;5024229;28;20025;-40
2022/01/12 08:20:38;;;;;;;19.75;13.07;;;-1.60;99.90;;;-2.46;100.00;99193.56;5018551;28;20037;-43
2022/01/12 08:23:03;;;;;;;20.23;12.93;;;-1.50;99.90;;;-2.33;100.00;99190.72;5021496;28;20032;-43
2022/01/12 08:25:29;;;;;;;20.33;12.32;;;-1.40;99.90;;;-2.17;100.00;99197.38;5021098;28;20053;-46
2022/01/12 08:27:55;;;;;;;23.38;13.52;;;-1.30;99.90;;;-2.07;100.00;99196.09;5017492;28;20029;-42
2022/01/12 08:30:28;;;;;;;22.08;13.13;;;-1.10;99.90;;;-2.09;100.00;99203.78;5020307;28;20064;-42
2022/01/12 08:32:54;;;;;;;21.20;13.20;;;-1.00;99.90;;;-1.98;100.00;99215.44;5019469;28;20034;-41
2022/01/12 08:35:20;;;;;;;22.15;13.02;;;-1.00;99.90;;;-1.98;100.00;99212.00;5023552;28;20029;-41
2022/01/12 08:37:47;;;;;;;20.40;13.30;;;-1.00;99.90;;;-1.94;100.00;99196.69;5020554;28;20048;-41
2022/01/12 08:40:16;;;;;;;18.55;12.10;;;-1.00;99.90;;;-2.05;100.00;99194.44;5009205;28;20037;-39
2022/01/12 08:42:43;;;;;;;17.58;12.10;;;-1.00;99.90;;;-2.09;100.00;99205.50;5022704;28;20605;-42
2022/01/12 08:45:10;;;;;;;17.77;11.10;;;-1.10;99.90;;;-2.22;100.00;99198.94;5022422;28;20530;-43
2022/01/12 08:47:36;;;;;;;17.00;10.82;;;-1.20;99.90;;;-2.28;100.00;99217.59;5024984;28;20065;-45
2022/01/12 08:50:03;;;;;;;17.08;10.88;;;-1.30;99.90;;;-2.37;100.00;99214.63;5024177;28;20061;-43
2022/01/12 08:52:30;;;;;;;17.33;11.52;;;-1.30;99.90;;;-2.52;100.00;99200.22;5018597;28;20037;-46
2022/01/12 08:54:56;;;;;;;18.30;11.32;;;-1.30;99.90;;;-2.43;100.00;99214.38;5024973;28;20039;-44
2022/01/12 08:57:22;;;;;;;16.58;10.80;;;-1.40;99.90;;;-2.38;100.00;99218.06;5021066;28;20498;-40
2022/01/12 08:59:48;;;;;;;17.27;11.60;;;-1.40;99.90;;;-2.39;100.00;99214.56;5027229;28;20035;-43
2022/01/12 09:02:14;;;;;;;22.27;11.75;;;-1.40;99.90;;;-2.39;100.00;99211.97;5023693;28;20574;-42
2022/01/12 09:04:43;;;;;;;17.52;10.95;;;-1.30;99.90;;;-2.39;100.00;99208.53;5020080;28;20032;-41
2022/01/12 09:07:10;;;;;;;17.10;10.98;;;-1.30;99.90;;;-2.36;100.00;99216.41;5022041;28;20033;-41
2022/01/12 09:09:36;;;;;;;17.17;10.85;;;-1.30;99.90;;;-2.33;100.00;99226.91;5000603;28;20510;-42
2022/01/12 09:12:04;;;;;;;19.13;10.10;;;-1.30;99.90;;;-2.32;100.00;99226.06;5022775;28;20486;-41
2022/01/12 09:14:31;;;;;;;17.35;11.05;;;-1.30;99.90;;;-2.33;100.00;99214.84;5003120;28;20045;-47
2022/01/12 09:17:02;;;;;;;18.45;11.00;;;-1.30;99.90;;;-2.23;100.00;99223.00;5006028;28;20025;-41
2022/01/12 09:19:28;;;;;;;16.35;10.20;;;-1.20;99.90;;;-2.24;100.00;99229.88;5024185;28;20037;-44
2022/01/12 09:21:56;;;;;;;16.98;10.77;;;-1.20;99.90;;;-2.27;100.00;99228.84;5022668;28;20027;-41
2022/01/12 09:24:22;;;;;;;17.35;11.20;;;-1.20;99.90;;;-2.16;100.00;99249.16;5021229;28;20037;-42
2022/01/12 09:26:49;;;;;;;18.17;10.85;;;-1.20;99.90;;;-2.08;100.00;99241.75;5024316;28;20029;-41
2022/01/12 09:29:15;;;;;;;19.35;11.60;;;-1.10;99.90;;;-1.97;100.00;99255.16;5020966;28;20037;-41
2022/01/12 09:31:41;;;;;;;18.27;10.88;;;-1.00;99.90;;;-1.91;100.00;99265.72;5021595;28;20102;-44
2022/01/12 09:34:07;;;;;;;16.35;11.55;;;-0.90;99.90;;;-1.80;100.00;99267.06;5023114;28;20025;-43
2022/01/12 09:36:33;;;;;;;17.52;11.15;;;-0.80;99.90;;;-1.71;100.00;99256.22;5020701;28;20108;-45
2022/01/12 09:39:00;;;;;;;21.10;10.88;;;-0.60;99.90;;;-1.55;100.00;99235.31;5023052;28;20034;-44
2022/01/12 09:41:27;;;;;;;17.63;11.07;;;-0.50;99.90;;;-1.44;100.00;99229.72;5018321;28;20427;-43
2022/01/12 09:43:54;;;;;;;17.10;10.65;;;-0.40;99.90;;;-1.40;100.00;99232.50;5021277;28;20124;-43
2022/01/12 09:46:23;;;;;;;16.40;10.50;;;-0.40;99.90;;;-1.32;100.00;99229.31;5016170;28;20236;-39
2022/01/12 09:48:49;;;;;;;15.02;9.88;;;-0.30;99.90;;;-1.36;100.00;99224.00;5007877;28;20079;-42
2022/01/12 09:51:15;;;;;;;18.40;10.27;;;-0.30;99.90;;;-1.24;100.00;99243.44;5017584;28;20458;-39
2022/01/12 09:53:43;;;;;;;16.48;10.55;;;-0.20;99.90;;;-1.43;100.00;99245.31;5017068;28;20041;-41
2022/01/12 09:56:19;;;;;;;12.95;9.30;;;-0.20;99.90;;;-1.24;100.00;99279.69;5023253;28;20037;-44
2022/01/12 09:58:46;;;;;;;17.02;9.40;;;-0.20;99.90;;;-1.24;100.00;99270.22;5016504;28;20025;-43
2022/01/12 10:01:12;;;;;;;15.18;10.05;;;-0.10;99.90;;;-1.20;100.00;99277.28;5018766;28;20030;-43
2022/01/12 10:03:38;;;;;;;14.77;8.90;;;-0.10;99.90;;;-1.05;100.00;99271.81;5020527;28;20030;-41
2022/01/12 10:06:15;;;;;;;18.10;9.85;;;-0.10;99.90;;;-1.24;99.84;99241.75;5020296;28;20552;-41
2022/01/12 10:08:41;;;;;;;16.02;9.70;;;0.00;99.90;;;-0.98;99.16;99279.00;5023641;28;20026;-41
2022/01/12 10:11:13;;;;;;;16.25;9.68;;;0.00;99.90;;;-1.10;99.36;99291.47;5022176;28;20124;-41
2022/01/12 10:13:40;;;;;;;16.60;9.50;;;0.00;99.90;;;-1.13;98.84;99277.53;5023792;28;20490;-45
2022/01/12 10:16:11;;;;;;;17.25;10.57;;;0.00;99.90;;;-1.13;96.86;99281.00;5021444;28;20140;-42
2022/01/12 10:18:51;;;;;;;18.33;9.77;;;0.00;99.90;;;-1.17;97.37;99276.50;5019987;28;20503;-42
2022/01/12 10:24:07;;;;;;;15.82;9.68;;;-0.10;99.90;;;-1.11;98.09;99266.41;5049008;23;20087;-88
2022/01/12 10:26:39;;;;;;;14.48;10.20;;;-0.10;99.90;;;-1.22;97.39;99241.78;5038853;28;20037;-87
2022/01/12 10:29:14;;;;;;;14.82;10.02;;;0.00;99.90;;;-0.93;98.19;99270.53;5016057;28;20057;-88
2022/01/12 10:31:45;;;;;;;18.02;10.15;;;0.00;99.90;;;-0.86;97.41;99262.16;5011110;28;20029;-87
2022/01/12 10:34:11;;;;;;;14.48;9.73;;;0.10;99.90;;;-0.68;95.27;99273.25;5046840;28;20108;-88
2022/01/12 10:36:42;;;;;;;14.52;9.27;;;0.20;99.90;;;-0.89;95.57;99259.47;5010575;28;20124;-88
2022/01/12 10:39:11;;;;;;;16.00;10.20;;;0.20;99.90;;;-0.73;96.30;99282.56;5030150;28;20454;-88
2022/01/12 10:42:00;;;;;;;14.25;9.10;;;0.20;99.90;;;-0.68;96.46;99285.31;5025496;28;20037;-88
2022/01/12 10:44:39;;;;;;;16.00;9.77;;;0.20;99.90;;;-0.87;96.83;99294.97;5046327;28;20021;-88
2022/01/12 10:47:16;;;;;;;16.52;10.35;;;0.20;99.90;;;-1.04;96.05;99285.66;5029011;28;20025;-89
2022/01/12 10:50:00;;;;;;;13.65;8.98;;;0.20;99.90;;;-0.96;97.34;99261.81;5012972;28;20029;-88
2022/01/12 10:52:34;;;;;;;15.65;10.32;;;0.20;99.90;;;-0.76;96.76;99295.38;5025364;28;20260;-88
2022/01/12 10:55:11;;;;;;;14.65;10.20;;;0.20;99.90;;;-0.65;97.40;99290.59;5029298;28;20025;-88
2022/01/12 10:57:41;;;;;;;16.92;10.52;;;0.30;99.90;;;-0.55;97.87;99294.44;5005901;28;20040;-88
2022/01/12 11:00:09;;;;;;;19.52;11.80;;;0.30;99.90;;;-0.51;97.95;99301.50;5008413;28;20025;-88
2022/01/12 11:02:38;;;;;;;18.77;12.23;;;0.40;99.90;;;-0.47;97.37;99293.88;5045966;28;20025;-88
2022/01/12 11:05:07;;;;;;;18.42;11.73;;;0.40;99.90;;;-0.38;96.24;99285.56;5017401;28;20046;-87
2022/01/12 11:07:34;;;;;;;19.23;12.07;;;0.50;99.90;;;-0.36;95.66;99283.03;5029141;28;20068;-88
2022/01/12 11:10:04;;;;;;;17.48;10.73;;;0.60;99.90;;;-0.35;95.71;99282.22;5037481;28;20028;-88
2022/01/12 11:12:30;;;;;;;19.70;12.02;;;0.60;99.90;;;-0.31;95.63;99263.34;5017195;28;20033;-88
2022/01/12 11:14:56;;;;;;;20.92;11.30;;;0.60;99.90;;;-0.35;95.82;99277.91;5030104;28;20402;-88
2022/01/12 11:17:22;;;;;;;16.90;10.65;;;0.60;99.90;;;-0.43;96.33;99259.50;5033417;28;20037;-88
2022/01/12 11:20:12;;;;;;;19.75;11.85;;;0.60;99.90;;;-0.49;95.66;99279.97;5030625;28;20411;-88
2022/01/12 11:23:02;;;;;;;17.83;11.73;;;0.60;99.90;;;-0.65;96.37;99249.16;5029860;28;20127;-88
2022/01/12 11:25:33;;;;;;;18.35;11.63;;;0.50;99.90;;;-0.53;96.71;99243.53;5012550;28;20037;-88
2022/01/12 11:28:10;;;;;;;20.17;11.93;;;0.50;99.90;;;-0.34;96.18;99278.78;5020217;28;20541;-88
2022/01/12 11:30:40;;;;;;;17.90;11.45;;;0.60;99.90;;;-0.32;96.24;99277.13;5029616;28;20124;-88
2022/01/12 11:33:09;;;;;;;18.98;11.90;;;0.60;99.90;;;-0.40;96.21;99250.94;5034379;28;20080;-88
2022/01/12 11:35:50;;;;;;;17.75;11.43;;;0.70;99.90;;;-0.22;95.79;99255.91;5019400;28;20052;-89